createdAt,value
2023-04-27T00:00:17.012Z,66.70
2023-04-27T00:02:44.160Z,66.65
2023-04-27T00:05:12.344Z,67.82
2023-04-27T00:07:39.485Z,67.63
2023-04-27T00:10:07.373Z,67.36
2023-04-27T00:12:34.214Z,66.96
2023-04-27T00:15:01.119Z,67.46
2023-04-27T00:17:28.086Z,67.19
2023-04-27T00:19:54.947Z,66.90
2023-04-27T00:22:21.770Z,67.07
2023-04-27T00:24:48.550Z,67.23
2023-04-27T00:27:15.385Z,67.30
2023-04-27T00:29:43.372Z,67.03
2023-04-27T00:32:11.086Z,67.66
2023-04-27T00:34:38.641Z,68.43
2023-04-27T00:37:05.816Z,68.29
2023-04-27T00:39:34.738Z,67.73
2023-04-27T00:42:01.751Z,67.44
2023-04-27T00:44:28.800Z,67.25
2023-04-27T00:46:55.869Z,67.34
2023-04-27T00:49:24.005Z,67.96
2023-04-27T00:51:50.867Z,68.80
2023-04-27T00:54:21.736Z,67.78
2023-04-27T00:56:49.143Z,68.82
2023-04-27T00:59:20.320Z,69.66
2023-04-27T01:01:47.484Z,68.48
2023-04-27T01:04:14.609Z,69.60
2023-04-27T01:06:41.685Z,69.47
2023-04-27T01:09:09.595Z,68.85
2023-04-27T01:11:36.513Z,69.29
2023-04-27T01:14:04.367Z,69.98
2023-04-27T01:16:32.226Z,69.85
2023-04-27T01:18:59.219Z,69.95
2023-04-27T01:21:26.574Z,70.03
2023-04-27T01:23:53.889Z,71.09
2023-04-27T01:26:20.907Z,71.53
2023-04-27T01:28:47.701Z,71.08
2023-04-27T01:31:15.434Z,71.20
2023-04-27T01:33:42.690Z,71.04
2023-04-27T01:36:09.897Z,71.69
2023-04-27T01:38:36.842Z,71.59
2023-04-27T01:41:05.144Z,71.96
2023-04-27T01:43:32.685Z,72.59
2023-04-27T01:46:07.228Z,72.74
2023-04-27T01:48:34.468Z,72.84
2023-04-27T01:51:01.283Z,73.27
2023-04-27T01:53:28.109Z,74.01
2023-04-27T01:55:55.054Z,73.16
2023-04-27T01:58:21.896Z,73.00
2023-04-27T02:00:48.774Z,73.13
2023-04-27T02:03:15.890Z,72.78
2023-04-27T02:05:43.302Z,74.23
2023-04-27T02:08:10.355Z,73.34
2023-04-27T02:10:37.462Z,73.18
2023-04-27T02:13:04.461Z,73.17
2023-04-27T02:15:31.524Z,73.31
2023-04-27T02:17:59.000Z,73.75
2023-04-27T02:20:26.097Z,73.73
2023-04-27T02:22:53.753Z,73.26
2023-04-27T02:25:20.974Z,74.48
2023-04-27T02:27:47.870Z,73.87
2023-04-27T02:30:15.732Z,73.87
2023-04-27T02:32:43.217Z,73.69
2023-04-27T02:35:12.854Z,74.14
2023-04-27T02:37:39.799Z,73.67
2023-04-27T02:40:08.441Z,73.71
2023-04-27T02:42:36.139Z,74.18
2023-04-27T02:45:03.087Z,73.96
2023-04-27T02:47:30.225Z,74.28
2023-04-27T02:49:57.131Z,74.20
2023-04-27T02:52:24.027Z,74.00
2023-04-27T02:54:51.135Z,73.79
2023-04-27T02:57:18.060Z,74.00
2023-04-27T02:59:45.070Z,74.82
2023-04-27T03:02:11.959Z,74.47
2023-04-27T03:04:39.031Z,74.76
2023-04-27T03:07:06.029Z,74.76
2023-04-27T03:09:32.962Z,75.63
2023-04-27T03:12:00.162Z,76.00
2023-04-27T03:14:27.112Z,75.42
2023-04-27T03:16:56.192Z,75.28
2023-04-27T03:19:23.469Z,74.79
2023-04-27T03:21:50.399Z,74.88
2023-04-27T03:24:17.709Z,75.87
2023-04-27T03:26:44.687Z,75.56
2023-04-27T03:29:11.739Z,75.85
2023-04-27T03:31:38.806Z,76.70
2023-04-27T03:34:05.796Z,76.43
2023-04-27T03:36:32.787Z,75.52
2023-04-27T03:38:59.656Z,76.18
2023-04-27T03:41:26.723Z,76.59
2023-04-27T03:43:53.864Z,77.79
2023-04-27T03:46:20.835Z,77.18
2023-04-27T03:48:47.910Z,76.04
2023-04-27T03:51:15.478Z,76.78
2023-04-27T03:53:42.457Z,76.70
2023-04-27T03:56:09.361Z,77.46
2023-04-27T03:58:36.323Z,77.61
2023-04-27T04:01:03.329Z,77.18
2023-04-27T04:03:30.350Z,77.11
2023-04-27T04:05:57.470Z,77.49
2023-04-27T04:08:24.449Z,77.23
2023-04-27T04:10:51.631Z,76.95
2023-04-27T04:13:18.586Z,76.48
2023-04-27T04:15:45.865Z,76.36
2023-04-27T04:18:12.849Z,77.82
2023-04-27T04:20:39.790Z,77.79
2023-04-27T04:23:07.547Z,77.09
2023-04-27T04:25:34.566Z,76.79
2023-04-27T04:28:01.443Z,77.00
2023-04-27T04:30:29.272Z,77.90
2023-04-27T04:32:56.266Z,77.57
2023-04-27T04:35:23.296Z,77.42
2023-04-27T04:37:50.297Z,77.81
2023-04-27T04:40:17.490Z,78.39
2023-04-27T04:42:44.455Z,77.63
2023-04-27T04:45:11.600Z,77.07
2023-04-27T04:47:39.981Z,77.29
2023-04-27T04:50:07.687Z,77.61
2023-04-27T04:52:34.665Z,77.83
2023-04-27T04:55:01.578Z,77.39
2023-04-27T04:57:28.719Z,77.49
2023-04-27T04:59:55.656Z,77.96
2023-04-27T05:02:22.855Z,77.32
2023-04-27T05:04:52.644Z,77.33
2023-04-27T05:07:24.061Z,77.33
2023-04-27T05:09:51.841Z,77.36
2023-04-27T05:12:18.963Z,77.68
2023-04-27T05:14:45.893Z,77.11
2023-04-27T05:17:12.989Z,77.36
2023-04-27T05:19:40.024Z,76.88
2023-04-27T05:22:06.983Z,78.11
2023-04-27T05:24:34.205Z,76.83
2023-04-27T05:27:02.506Z,75.80
2023-04-27T05:29:29.526Z,75.91
2023-04-27T05:31:56.703Z,75.32
2023-04-27T05:34:23.712Z,74.99
2023-04-27T05:36:50.843Z,75.19
2023-04-27T05:39:17.885Z,75.08
2023-04-27T05:41:45.010Z,75.12
2023-04-27T05:44:12.029Z,75.43
2023-04-27T05:46:39.208Z,74.71
2023-04-27T05:49:06.387Z,74.27
2023-04-27T05:51:34.105Z,74.25
2023-04-27T05:54:02.422Z,73.83
2023-04-27T05:56:29.632Z,73.48
2023-04-27T05:58:56.884Z,72.87
2023-04-27T06:01:24.163Z,72.55
2023-04-27T06:03:51.546Z,73.19
2023-04-27T06:06:18.676Z,72.98
2023-04-27T06:08:46.167Z,72.38
2023-04-27T06:11:13.499Z,72.46
2023-04-27T06:13:40.655Z,72.09
2023-04-27T06:16:08.601Z,72.01
2023-04-27T06:18:35.723Z,72.51
2023-04-27T06:21:02.899Z,71.76
2023-04-27T06:23:30.188Z,72.12
2023-04-27T06:25:57.741Z,72.33
2023-04-27T06:28:25.002Z,72.17
2023-04-27T06:30:52.191Z,72.18
2023-04-27T06:33:19.352Z,71.44
2023-04-27T06:35:47.621Z,71.39
2023-04-27T06:38:14.851Z,71.81
2023-04-27T06:40:42.315Z,71.16
2023-04-27T06:43:11.870Z,70.32
2023-04-27T06:45:38.993Z,69.36
2023-04-27T06:48:06.377Z,69.57
2023-04-27T06:50:33.451Z,69.48
2023-04-27T06:53:00.553Z,70.17
2023-04-27T06:55:27.861Z,70.89
2023-04-27T06:57:54.919Z,70.02
2023-04-27T07:00:22.394Z,69.04
2023-04-27T07:02:49.551Z,69.19
2023-04-27T07:05:16.986Z,68.56
2023-04-27T07:07:44.360Z,68.88
2023-04-27T07:10:11.560Z,69.33
2023-04-27T07:12:39.257Z,68.90
2023-04-27T07:15:07.202Z,69.01
2023-04-27T07:17:34.640Z,69.21
2023-04-27T07:20:02.158Z,68.89
2023-04-27T07:22:29.452Z,68.57
2023-04-27T07:24:56.594Z,68.82
2023-04-27T07:27:23.862Z,68.91
2023-04-27T07:29:51.248Z,68.54
2023-04-27T07:32:18.721Z,67.29
2023-04-27T07:34:53.590Z,66.99
2023-04-27T07:37:22.470Z,66.89
2023-04-27T07:39:52.029Z,66.62
2023-04-27T07:42:19.862Z,66.47
2023-04-27T07:44:47.076Z,66.03
2023-04-27T07:47:14.542Z,65.54
2023-04-27T07:49:42.445Z,64.99
2023-04-27T07:52:09.515Z,65.08
2023-04-27T07:54:37.323Z,64.66
2023-04-27T07:57:13.109Z,64.70
2023-04-27T07:59:40.566Z,65.52
2023-04-27T08:02:19.033Z,64.32
2023-04-27T08:04:48.046Z,63.38
2023-04-27T08:07:17.602Z,63.44
2023-04-27T08:12:30.087Z,62.31
2023-04-27T08:14:59.243Z,62.11
2023-04-27T08:17:30.232Z,61.57
2023-04-27T08:19:57.781Z,61.32
2023-04-27T08:22:27.721Z,62.09
2023-04-27T08:24:55.416Z,61.35
2023-04-27T08:27:28.374Z,60.64
2023-04-27T08:30:15.797Z,60.34
2023-04-27T08:32:57.339Z,59.51
2023-04-27T08:35:32.227Z,60.24
2023-04-27T08:38:31.784Z,59.62
2023-04-27T08:41:25.465Z,58.13
2023-04-27T08:43:53.975Z,58.82
2023-04-27T08:46:22.308Z,57.88
2023-04-27T08:48:51.777Z,57.73
2023-04-27T08:51:19.239Z,57.27
2023-04-27T08:53:49.868Z,56.54
2023-04-27T08:56:38.047Z,57.04
2023-04-27T08:59:14.172Z,56.61
2023-04-27T09:01:46.335Z,55.66
2023-04-27T09:04:14.929Z,55.61
2023-04-27T09:06:49.828Z,54.51
2023-04-27T09:09:33.576Z,54.18
2023-04-27T09:12:02.647Z,54.05
2023-04-27T09:14:31.461Z,52.58
2023-04-27T09:17:00.113Z,52.56
2023-04-27T09:19:29.242Z,52.96
2023-04-27T09:22:05.444Z,51.85
2023-04-27T09:24:32.990Z,51.94
2023-04-27T09:27:01.073Z,52.26
2023-04-27T09:29:40.492Z,51.16
2023-04-27T09:32:17.956Z,49.96
2023-04-27T09:34:45.332Z,49.49
2023-04-27T09:37:26.173Z,49.63
2023-04-27T09:40:21.689Z,49.00
2023-04-27T09:42:49.291Z,48.36
2023-04-27T09:45:16.571Z,47.95
2023-04-27T09:47:45.190Z,47.01
2023-04-27T09:50:14.858Z,47.20
2023-04-27T09:52:44.424Z,46.88
2023-04-27T09:55:14.755Z,46.67
2023-04-27T09:57:51.879Z,46.28
2023-04-27T10:00:26.086Z,47.54
2023-04-27T10:03:03.156Z,48.77
2023-04-27T10:05:37.639Z,47.38
2023-04-27T10:08:07.006Z,47.91
2023-04-27T10:10:43.384Z,48.50
2023-04-27T10:13:21.355Z,49.52
2023-04-27T10:15:50.424Z,48.75
2023-04-27T10:18:28.348Z,49.67
2023-04-27T10:20:55.993Z,49.79
2023-04-27T10:23:25.568Z,49.90
2023-04-27T10:25:54.041Z,50.22
2023-04-27T10:28:22.616Z,51.01
2023-04-27T10:30:57.316Z,50.59
2023-04-27T10:33:24.698Z,50.39
2023-04-27T10:36:01.642Z,51.36
2023-04-27T10:38:31.486Z,50.72
2023-04-27T10:41:02.568Z,50.06
2023-04-27T10:43:31.820Z,51.05
2023-04-27T10:46:12.948Z,49.80
2023-04-27T10:48:41.403Z,49.24
2023-04-27T10:51:12.089Z,49.19
2023-04-27T10:53:39.709Z,49.36
2023-04-27T10:56:16.040Z,49.08
2023-04-27T10:58:48.838Z,47.73
2023-04-27T11:01:33.474Z,48.09
2023-04-27T11:04:03.146Z,46.96
2023-04-27T11:06:31.168Z,47.38
2023-04-27T11:08:58.764Z,46.45
2023-04-27T11:11:27.523Z,46.16
2023-04-27T11:13:57.469Z,46.25
2023-04-27T11:16:33.294Z,46.24
2023-04-27T11:19:35.088Z,45.51
2023-04-27T11:22:07.313Z,46.27
2023-04-27T11:24:46.441Z,45.89
2023-04-27T11:27:14.028Z,45.96
2023-04-27T11:29:42.546Z,46.34
2023-04-27T11:32:19.108Z,46.48
2023-04-27T11:34:57.788Z,46.93
2023-04-27T11:37:36.492Z,46.89
2023-04-27T11:40:17.591Z,47.02
2023-04-27T11:43:03.523Z,47.95
2023-04-27T11:45:31.467Z,47.66
2023-04-27T11:48:17.652Z,47.35
2023-04-27T11:51:01.739Z,46.98
2023-04-27T11:53:38.667Z,46.64
2023-04-27T11:56:13.140Z,46.05
2023-04-27T11:58:42.552Z,46.01
2023-04-27T12:01:11.422Z,46.88
2023-04-27T12:03:39.281Z,47.15
2023-04-27T12:06:31.374Z,46.87
2023-04-27T12:08:59.954Z,48.04
2023-04-27T12:11:33.034Z,47.39
2023-04-27T12:14:01.882Z,47.01
2023-04-27T12:16:32.401Z,47.31
2023-04-27T12:19:00.578Z,47.04
2023-04-27T12:21:28.093Z,47.45
2023-04-27T12:23:55.611Z,47.47
2023-04-27T12:26:29.694Z,47.23
2023-04-27T12:28:57.515Z,47.54
2023-04-27T12:31:27.831Z,46.90
2023-04-27T12:33:55.455Z,46.99
2023-04-27T12:36:25.195Z,47.92
2023-04-27T12:38:53.063Z,47.43
2023-04-27T12:41:20.805Z,48.18
2023-04-27T12:43:49.285Z,48.16
2023-04-27T12:46:39.830Z,48.01
2023-04-27T12:49:08.007Z,48.06
2023-04-27T12:51:36.279Z,47.42
2023-04-27T12:54:04.362Z,47.76
2023-04-27T12:57:04.397Z,47.83
2023-04-27T12:59:31.922Z,47.77
2023-04-27T13:02:06.414Z,48.23
2023-04-27T13:04:34.362Z,48.21
2023-04-27T13:07:02.256Z,49.91
2023-04-27T13:09:30.006Z,48.25
2023-04-27T13:12:00.710Z,48.46
2023-04-27T13:14:29.619Z,48.72
2023-04-27T13:16:57.290Z,49.02
2023-04-27T13:19:24.719Z,49.32
2023-04-27T13:21:52.256Z,49.64
2023-04-27T13:24:19.835Z,49.09
2023-04-27T13:26:48.004Z,50.15
2023-04-27T13:29:15.367Z,49.80
2023-04-27T13:31:45.192Z,49.62
2023-04-27T13:34:13.108Z,49.67
2023-04-27T13:36:41.387Z,49.52
2023-04-27T13:39:09.678Z,49.54
2023-04-27T13:41:37.142Z,50.04
2023-04-27T13:44:04.957Z,50.95
2023-04-27T13:46:36.590Z,50.55
2023-04-27T13:49:04.191Z,50.69
2023-04-27T13:51:33.946Z,50.87
2023-04-27T13:54:02.525Z,50.93
2023-04-27T13:56:36.796Z,52.57
2023-04-27T13:59:04.664Z,51.40
2023-04-27T14:01:32.151Z,51.90
2023-04-27T14:04:00.512Z,52.61
2023-04-27T14:06:30.629Z,53.74
2023-04-27T14:08:58.333Z,54.47
2023-04-27T14:11:27.057Z,55.76
2023-04-27T14:13:54.480Z,56.61
2023-04-27T14:16:25.882Z,57.53
2023-04-27T14:18:54.022Z,58.50
2023-04-27T14:21:21.941Z,60.37
2023-04-27T14:23:49.207Z,62.61
2023-04-27T14:26:25.609Z,64.55
2023-04-27T14:28:52.963Z,66.68
2023-04-27T14:31:20.283Z,66.86
2023-04-27T14:33:48.560Z,67.22
2023-04-27T14:36:16.243Z,69.85
2023-04-27T14:38:43.700Z,70.34
2023-04-27T14:41:11.045Z,69.72
2023-04-27T14:43:38.628Z,71.14
2023-04-27T14:46:21.180Z,71.73
2023-04-27T14:48:49.589Z,72.95
2023-04-27T14:51:18.473Z,73.10
2023-04-27T14:53:46.080Z,72.99
2023-04-27T14:56:16.832Z,73.42
2023-04-27T14:58:44.479Z,72.73
2023-04-27T15:01:12.213Z,72.43
2023-04-27T15:03:39.827Z,73.10
2023-04-27T15:06:16.380Z,73.50
2023-04-27T15:08:44.147Z,74.54
2023-04-27T15:11:11.754Z,73.64
2023-04-27T15:13:39.083Z,74.41
2023-04-27T15:16:26.194Z,74.53
2023-04-27T15:18:55.649Z,74.69
2023-04-27T15:21:23.237Z,72.53
2023-04-27T15:23:51.227Z,73.20
2023-04-27T15:26:33.181Z,73.20
2023-04-27T15:29:01.382Z,72.84
2023-04-27T15:31:29.951Z,72.87
2023-04-27T15:33:58.111Z,73.03
2023-04-27T15:36:29.172Z,73.18
2023-04-27T15:38:56.913Z,71.94
2023-04-27T15:41:24.399Z,70.85
2023-04-27T15:43:52.270Z,70.59
2023-04-27T15:46:20.205Z,71.19
2023-04-27T15:48:47.914Z,73.37
2023-04-27T15:51:17.232Z,73.94
2023-04-27T15:53:44.820Z,74.66
2023-04-27T15:56:31.706Z,74.44
2023-04-27T15:58:59.223Z,75.31
2023-04-27T16:01:27.150Z,75.62
2023-04-27T16:03:54.796Z,76.62
2023-04-27T16:06:41.832Z,76.54
2023-04-27T16:09:11.538Z,76.17
2023-04-27T16:11:39.815Z,76.04
2023-04-27T16:14:07.851Z,74.87
2023-04-27T16:16:35.474Z,75.81
2023-04-27T16:19:03.132Z,76.96
2023-04-27T16:21:31.314Z,76.74
2023-04-27T16:23:58.851Z,76.76
2023-04-27T16:26:27.830Z,78.09
2023-04-27T16:28:58.735Z,79.02
2023-04-27T16:31:35.759Z,80.21
2023-04-27T16:34:04.077Z,80.67
2023-04-27T16:36:42.851Z,80.32
2023-04-27T16:39:11.998Z,81.09
2023-04-27T16:41:39.625Z,82.31
2023-04-27T16:44:07.478Z,82.75
2023-04-27T16:46:41.765Z,82.75
2023-04-27T16:52:07.320Z,84.19
2023-04-27T16:55:11.347Z,84.00
2023-04-27T16:58:03.940Z,84.45
2023-04-27T17:00:33.258Z,83.89
2023-04-27T17:06:21.023Z,84.60
2023-04-27T17:08:51.392Z,84.43
2023-04-27T17:11:20.275Z,84.21
2023-04-27T17:13:50.958Z,84.77
2023-04-27T17:16:23.596Z,86.37
2023-04-27T17:18:53.411Z,86.68
2023-04-27T17:21:23.469Z,86.40
2023-04-27T17:23:52.446Z,85.29
2023-04-27T17:26:23.081Z,86.16
2023-04-27T17:29:01.240Z,86.70
2023-04-27T17:31:29.080Z,86.33
2023-04-27T17:33:56.995Z,86.57
2023-04-27T17:36:25.056Z,87.29
2023-04-27T17:38:52.996Z,88.25
2023-04-27T17:41:21.368Z,88.72
2023-04-27T17:43:50.683Z,88.12
2023-04-27T17:46:21.123Z,88.55
2023-04-27T17:48:48.851Z,88.78
2023-04-27T17:51:16.680Z,89.79
2023-04-27T17:53:44.864Z,90.69
2023-04-27T17:56:15.035Z,90.52
2023-04-27T17:58:42.621Z,90.58
2023-04-27T18:01:12.348Z,89.94
2023-04-27T18:03:40.237Z,90.21
2023-04-27T18:06:07.969Z,90.46
2023-04-27T18:08:35.070Z,91.61
2023-04-27T18:11:02.326Z,91.48
2023-04-27T18:13:30.069Z,91.33
2023-04-27T18:15:59.313Z,89.76
2023-04-27T18:18:27.537Z,91.17
2023-04-27T18:20:54.897Z,90.82
2023-04-27T18:23:22.337Z,91.32
2023-04-27T18:25:49.801Z,92.01
2023-04-27T18:28:17.370Z,92.51
2023-04-27T18:30:44.586Z,92.62
2023-04-27T18:33:12.073Z,92.32
2023-04-27T18:35:39.804Z,92.27
2023-04-27T18:38:06.976Z,91.57
2023-04-27T18:40:36.795Z,91.97
2023-04-27T18:43:04.183Z,91.99
2023-04-27T18:45:31.681Z,92.11
2023-04-27T18:47:59.246Z,91.90
2023-04-27T18:50:26.359Z,92.48
2023-04-27T18:52:53.608Z,92.74
2023-04-27T18:55:20.757Z,92.73
2023-04-27T18:57:48.001Z,93.12
2023-04-27T19:00:15.685Z,92.75
2023-04-27T19:02:42.814Z,93.16
2023-04-27T19:05:13.531Z,93.68
2023-04-27T19:07:41.210Z,93.99
2023-04-27T19:10:09.298Z,93.65
2023-04-27T19:12:36.561Z,93.47
2023-04-27T19:15:04.331Z,92.89
2023-04-27T19:17:32.065Z,92.94
2023-04-27T19:19:59.561Z,93.34
2023-04-27T19:22:28.329Z,93.29
2023-04-27T19:24:55.554Z,92.99
2023-04-27T19:27:23.044Z,93.18
2023-04-27T19:29:50.888Z,92.71
2023-04-27T19:32:18.466Z,93.03
2023-04-27T19:34:46.152Z,93.02
2023-04-27T19:37:13.980Z,93.01
2023-04-27T19:39:41.373Z,94.07
2023-04-27T19:42:08.521Z,94.27
2023-04-27T19:44:35.681Z,93.99
2023-04-27T19:47:02.964Z,94.47
2023-04-27T19:49:33.190Z,94.69
2023-04-27T19:52:01.085Z,94.88
2023-04-27T19:54:28.174Z,94.73
2023-04-27T19:56:55.443Z,95.61
2023-04-27T19:59:22.729Z,95.75
2023-04-27T20:01:49.930Z,95.95
2023-04-27T20:04:18.921Z,96.36
2023-04-27T20:06:46.971Z,96.77
2023-04-27T20:09:14.094Z,96.60
2023-04-27T20:11:41.223Z,97.08
2023-04-27T20:14:08.229Z,96.41
2023-04-27T20:16:35.621Z,96.89
2023-04-27T20:19:02.840Z,96.83
2023-04-27T20:21:29.968Z,96.62
2023-04-27T20:23:59.713Z,96.04
2023-04-27T20:26:26.804Z,96.92
2023-04-27T20:28:54.232Z,97.55
2023-04-27T20:31:21.515Z,97.74
2023-04-27T20:33:48.779Z,98.25
2023-04-27T20:36:18.325Z,98.21
2023-04-27T20:38:46.289Z,98.77
2023-04-27T20:41:13.505Z,98.42
2023-04-27T20:43:40.789Z,98.44
2023-04-27T20:46:08.388Z,98.37
2023-04-27T20:48:35.534Z,98.40
2023-04-27T20:51:02.882Z,98.65
2023-04-27T20:53:30.149Z,98.76
2023-04-27T20:55:57.424Z,98.64
2023-04-27T20:58:24.534Z,98.28
2023-04-27T21:00:51.921Z,98.15
2023-04-27T21:03:19.301Z,98.73
2023-04-27T21:05:47.019Z,98.63
2023-04-27T21:08:14.271Z,99.04
2023-04-27T21:10:41.552Z,99.04
2023-04-27T21:13:08.647Z,99.28
2023-04-27T21:15:35.885Z,99.13
2023-04-27T21:18:11.325Z,99.49
2023-04-27T21:20:46.370Z,100.00
2023-04-27T21:23:15.612Z,100.00
2023-04-27T21:25:44.856Z,100.00
2023-04-27T21:28:12.151Z,100.00
2023-04-27T21:30:39.414Z,100.00
2023-04-27T21:33:06.822Z,100.00
2023-04-27T21:35:34.115Z,100.00
2023-04-27T21:38:01.678Z,100.00
2023-04-27T21:40:28.870Z,100.00
2023-04-27T21:42:56.244Z,100.00
2023-04-27T21:45:23.861Z,100.00
2023-04-27T21:47:51.034Z,100.00
2023-04-27T21:50:18.644Z,100.00
2023-04-27T21:52:45.832Z,100.00
2023-04-27T21:55:12.998Z,100.00
2023-04-27T21:57:40.159Z,100.00
2023-04-27T22:00:13.889Z,100.00
2023-04-27T22:02:43.081Z,100.00
2023-04-27T22:05:10.516Z,100.00
2023-04-27T22:07:37.819Z,100.00
2023-04-27T22:10:05.707Z,100.00
2023-04-27T22:12:33.095Z,100.00
2023-04-27T22:15:00.629Z,100.00
2023-04-27T22:17:29.438Z,100.00
2023-04-27T22:19:57.464Z,100.00
2023-04-27T22:22:24.742Z,100.00
2023-04-27T22:24:51.834Z,100.00
2023-04-27T22:27:18.880Z,100.00
2023-04-27T22:29:45.998Z,100.00
2023-04-27T22:32:13.116Z,100.00
2023-04-27T22:34:40.408Z,100.00
2023-04-27T22:37:07.472Z,100.00
2023-04-27T22:39:34.969Z,100.00
2023-04-27T22:42:02.084Z,100.00
2023-04-27T22:44:29.122Z,100.00
2023-04-27T22:46:56.809Z,100.00
2023-04-27T22:49:24.564Z,100.00
2023-04-27T22:51:51.869Z,100.00
2023-04-27T22:54:18.864Z,100.00
2023-04-27T22:56:46.233Z,100.00
2023-04-27T22:59:13.759Z,100.00
2023-04-27T23:01:40.695Z,100.00
2023-04-27T23:04:09.433Z,100.00
2023-04-27T23:06:36.724Z,100.00
2023-04-27T23:09:03.726Z,100.00
2023-04-27T23:11:30.649Z,100.00
2023-04-27T23:13:57.914Z,100.00
2023-04-27T23:16:26.135Z,100.00
2023-04-27T23:18:53.278Z,100.00
2023-04-27T23:21:20.227Z,100.00
2023-04-27T23:23:47.137Z,100.00
2023-04-27T23:26:14.936Z,100.00
2023-04-27T23:28:42.038Z,100.00
2023-04-27T23:31:09.241Z,100.00
2023-04-27T23:33:36.228Z,100.00
2023-04-27T23:36:04.055Z,100.00
2023-04-27T23:38:31.170Z,100.00
2023-04-27T23:40:58.376Z,100.00
2023-04-27T23:43:25.350Z,100.00
2023-04-27T23:45:53.132Z,100.00
2023-04-27T23:48:20.345Z,100.00
2023-04-27T23:50:47.328Z,100.00
2023-04-27T23:53:14.291Z,100.00
2023-04-27T23:55:41.256Z,100.00
2023-04-27T23:58:08.208Z,100.00
